Home   Weather   USA   St Clair   Past weeks
Flag for USA

Past Weather in St Clair, Missouri, USA — Yesterday and Last 2 Weeks

Currently: 70 °F. Mostly cloudy. (Weather station: Washington Regional Airport, USA). See more current weather

Past Weather in St Clair — Graph

°F

St Clair Temperature Yesterday

Maximum temperature yesterday: 91 °F (at 1:35 pm)
Minimum temperature yesterday: 72 °F (at 4:35 am)
Average temperature yesterday: 82 °F

High & Low Weather Summary for the Past Weeks

 TemperatureHumidityPressure
High97 °F (Jun 17, 3:55 pm)100% (Jun 6, 6:15 am)30.09 "Hg (Jun 6, 6:15 am)
Low57 °F (Jun 15, 5:35 am)29% (Jun 13, 3:35 pm)29.59 "Hg (Jun 20, 9:35 pm)
Average79 °F75%29.91 "Hg
* Reported Jun 6 2:15 am — Jun 21 2:55 am, St Clair. Weather by CustomWeather, © 2021

Note: Actual official high and low records may vary slightly from our data, if they occured in-between our weather recording intervals... More about our weather records

St Clair Weather History for the Previous 24 Hours

Scroll right to see more
 ConditionsComfort  
Time TempWeatherWind HumidityBarometerVisibility
2:55 am
Mon, Jun 21
70 °FPartly cloudy.No wind100%29.71 "Hg10 mi
2:35 am70 °FClear.No wind100%29.69 "Hg9 mi
1:55 am70 °FThundershowers. Fog.15 mph100%29.74 "Hg2 mi
1:15 am70 °FThundershowers. Fog.6 mph100%29.72 "Hg5 mi
12:55 am70 °FThundershowers. Fog.No wind100%29.74 "Hg6 mi
12:35 am70 °FThunderstorms. Fog.13 mph100%29.76 "Hg1 mi
12:15 am72 °FThundershowers. Fog.20 mph94%29.76 "Hg2 mi
11:55 pm
Sun, Jun 20
82 °FThundershowers. Passing clouds.26 mph62%29.75 "Hg9 mi
11:35 pm84 °FPartly cloudy.No wind62%29.67 "Hg10 mi
11:15 pm84 °FPassing clouds.No wind62%29.67 "Hg9 mi
10:55 pm84 °FPassing clouds.7 mph62%29.65 "Hg10 mi
10:35 pm84 °FClear.8 mph58%29.62 "Hg10 mi
10:15 pm84 °FClear.9 mph62%29.60 "Hg10 mi
9:55 pm84 °FClear.7 mph62%29.61 "Hg10 mi
9:35 pm84 °FClear.10 mph62%29.59 "Hg10 mi
9:15 pm84 °FClear.8 mph62%29.61 "Hg10 mi
8:35 pm86 °FClear.6 mph59%29.62 "Hg10 mi
8:15 pm86 °FSunny.9 mph59%29.62 "Hg9 mi
7:55 pm88 °FSunny.9 mph55%29.62 "Hg9 mi
7:35 pm88 °FSunny.10 mph55%29.62 "Hg9 mi
6:35 pm90 °FSunny.12 mph52%29.62 "Hg9 mi
6:15 pm91 °FSunny.15 mph49%29.63 "Hg10 mi
5:55 pm91 °FSunny.16 mph46%29.63 "Hg10 mi
5:35 pm91 °FSunny.14 mph46%29.64 "Hg9 mi
5:15 pm91 °FSunny.12 mph49%29.65 "Hg9 mi
4:55 pm91 °FSunny.14 mph49%29.65 "Hg9 mi
4:15 pm90 °FSunny.8 mph52%29.66 "Hg9 mi
3:55 pm90 °FSunny.10 mph52%29.66 "Hg9 mi
3:35 pm90 °FSunny.7 mph49%29.67 "Hg9 mi
3:15 pm91 °FSunny.9 mph46%29.68 "Hg10 mi
2:55 pm91 °FSunny.12 mph46%29.68 "Hg9 mi
2:35 pm91 °FSunny.10 mph46%29.69 "Hg9 mi
2:15 pm91 °FSunny.8 mph46%29.68 "Hg9 mi
1:55 pm90 °FSunny.5 mph49%29.68 "Hg9 mi
1:35 pm91 °FSunny.12 mph46%29.69 "Hg9 mi
1:15 pm90 °FHot.6 mph52%29.71 "Hg8 mi
12:55 pm90 °FHot.8 mph52%29.72 "Hg9 mi
12:35 pm90 °FPassing clouds.3 mph49%29.72 "Hg9 mi
11:55 am88 °FSunny.9 mph52%29.71 "Hg9 mi
10:55 am86 °FSunny.5 mph59%29.73 "Hg9 mi
10:35 am86 °FSunny.No wind62%29.74 "Hg9 mi
10:15 am84 °FSunny.No wind66%29.75 "Hg9 mi
9:55 am82 °FSunny.No wind70%29.76 "Hg9 mi
9:35 am81 °FSunny.No wind74%29.77 "Hg9 mi
9:15 am81 °FSunny.No wind74%29.77 "Hg9 mi
8:35 am79 °FSunny.No wind79%29.78 "Hg9 mi
8:15 am77 °FSunny.No wind79%29.78 "Hg10 mi
7:35 am75 °FSunny.No wind83%29.77 "Hg9 mi
7:15 am73 °FSunny.No wind83%29.77 "Hg10 mi
6:55 am73 °FSunny.No wind83%29.76 "Hg10 mi
6:35 am73 °FSunny.No wind83%29.76 "Hg10 mi
6:15 am72 °FSunny.No wind88%29.75 "Hg10 mi
5:55 am72 °FSunny.No wind88%29.74 "Hg10 mi
5:35 am72 °FClear.No wind88%29.74 "Hg10 mi
5:15 am72 °FClear.No wind88%29.73 "Hg10 mi
4:55 am72 °FClear.No wind88%29.73 "Hg10 mi
4:35 am72 °FClear.No wind88%29.74 "Hg10 mi
4:15 am73 °FClear.No wind83%29.75 "Hg10 mi
Weather by CustomWeather, © 2021

See weather overview